Friday, May 25, 2018, 11:54 AM CDT
Back to Local

KDPA, Chicago/west Ch Dupage

Location: West Chicago, IL, United States Lat: 41.9
Local Time: 11:54 AM CDT (16:54 GMT) Lon: -88.25
Time Zone: US/Central Elev: 757 ft

Show me the last for .
Show Coded

Time T Td Feel RH Dir Speed Gust Alt SLP Vis Weather Sky Remarks
2018-05-25 10:52 83 64 85 53 240° 12 - 29.93 29.91 10 CLR None
2018-05-25 09:52 80 62 82 54 220° 10 - 29.93 29.91 10 CLR None
2018-05-25 08:52 76 63 79 64 210° 7 - 29.95 29.93 10 CLR None
2018-05-25 07:52 72 61 76 68 190° 6 - 29.96 29.94 9 CLR None
2018-05-25 06:52 65 59 - 81 170° 5 - 29.95 29.93 10 CLR 6-hr Min Temp (7am): 60.1°F
6-hr Max Temp (7am): 66.0°F
2018-05-25 05:52 61 55 - 80 170° 5 - 29.96 29.94 9 CLR None
2018-05-25 04:52 62 55 - 77 170° 6 - 29.97 29.95 10 CLR None
2018-05-25 03:52 62 57 - 83 160° 3 - 29.98 29.96 9 CLR None
2018-05-25 02:52 64 55 - 72 - Calm - 29.99 29.98 10 CLR None
2018-05-25 01:52 64 57 - 77 150° 3 - 30.00 29.98 9 CLR None
2018-05-25 00:52 65 59 - 81 - Calm - 30.02 30.00 8 CLR 6-hr Min Temp (1am): 64.9°F
6-hr Max Temp (1am): 82.0°F
24-hr Min Temp (1am): 53.1°F
24-hr Max Temp (1am): 84.9°F
2018-05-24 23:52 66 59 - 78 160° 5 - 30.02 30.01 8 CLR None
2018-05-24 22:52 70 57 - 63 140° 7 - 30.02 30.01 9 CLR None
2018-05-24 21:52 73 58 77 59 130° 5 - 30.03 30.01 9 CLR None
2018-05-24 20:52 74 62 77 66 - Calm - 30.02 30.01 10 CLR None
2018-05-24 19:52 80 58 81 46 140° 3 - 30.02 30.01 10 CLR None
2018-05-24 18:52 82 61 83 49 170° 6 - 30.03 30.01 10 CLR 6-hr Min Temp (7pm): 82.0°F
6-hr Max Temp (7pm): 84.9°F
2018-05-24 17:52 84 58 84 41 160° 6 - 30.04 30.03 10 CLR None
2018-05-24 16:52 84 57 - 39 140° 8 - 30.07 30.06 10 CLR None
2018-05-24 15:52 85 58 85 40 150° 7 - 30.09 30.07 10 CLR None
2018-05-24 14:52 85 58 85 40 200° 7 - 30.11 30.09 10 CLR None
2018-05-24 13:52 83 58 83 42 Variable 5 - 30.12 30.11 10 CLR None
2018-05-24 12:52 82 58 82 43 160° 10 - 30.14 30.13 10 CLR 6-hr Min Temp (1pm): 61.0°F
6-hr Max Temp (1pm): 82.0°F

Support USWX by starting your Amazon purchase here.